createdAt,value
2018-05-13T00:02:10.677Z,101110.41
2018-05-13T00:04:38.252Z,101112.76
2018-05-13T00:07:05.864Z,101109.03
2018-05-13T00:09:33.441Z,101108.90
2018-05-13T00:12:01.064Z,101100.78
2018-05-13T00:14:28.681Z,101100.83
2018-05-13T00:16:56.260Z,101104.44
2018-05-13T00:19:24.417Z,101105.61
2018-05-13T00:21:52.049Z,101104.48
2018-05-13T00:24:19.669Z,101102.80
2018-05-13T00:26:47.258Z,101096.97
2018-05-13T00:29:14.885Z,101100.68
2018-05-13T00:31:42.461Z,101102.13
2018-05-13T00:34:10.105Z,101097.34
2018-05-13T00:36:37.689Z,101096.03
2018-05-13T00:39:06.394Z,101093.41
2018-05-13T00:41:34.160Z,101095.94
2018-05-13T00:44:01.741Z,101097.06
2018-05-13T00:46:29.372Z,101083.30
2018-05-13T00:48:56.952Z,101080.77
2018-05-13T00:51:24.572Z,101090.11
2018-05-13T00:53:52.544Z,101078.42
2018-05-13T00:56:20.165Z,101080.58
2018-05-13T00:58:47.872Z,101071.61
2018-05-13T01:01:15.494Z,101069.64
2018-05-13T01:03:43.104Z,101070.39
2018-05-13T01:06:10.726Z,101073.86
2018-05-13T01:08:38.315Z,101067.80
2018-05-13T01:11:05.929Z,101072.13
2018-05-13T01:13:33.506Z,101064.75
2018-05-13T01:16:01.121Z,101065.92
2018-05-13T01:18:29.245Z,101054.98
2018-05-13T01:20:56.871Z,101045.06
2018-05-13T01:23:24.584Z,101046.80
2018-05-13T01:25:52.161Z,101052.26
2018-05-13T01:28:19.777Z,101050.55
2018-05-13T01:30:47.361Z,101052.75
2018-05-13T01:33:14.976Z,101054.30
2018-05-13T01:35:42.564Z,101056.16
2018-05-13T01:38:10.169Z,101053.31
2018-05-13T01:40:38.360Z,101050.27
2018-05-13T01:43:05.936Z,101052.03
2018-05-13T01:45:33.548Z,101043.67
2018-05-13T01:48:01.164Z,101046.61
2018-05-13T01:50:28.778Z,101045.00
2018-05-13T01:52:56.388Z,101049.76
2018-05-13T01:55:23.965Z,101048.81
2018-05-13T01:57:51.584Z,101050.41
2018-05-13T02:00:19.205Z,101050.89
2018-05-13T02:02:46.821Z,101042.70
2018-05-13T02:05:14.760Z,101038.23
2018-05-13T02:07:42.344Z,101038.53
2018-05-13T02:10:09.917Z,101034.90
2018-05-13T02:12:37.533Z,101031.42
2018-05-13T02:15:05.169Z,101028.09
2018-05-13T02:17:33.508Z,101028.48
2018-05-13T02:20:01.088Z,101023.95
2018-05-13T02:22:28.743Z,101022.70
2018-05-13T02:24:57.981Z,101025.71
2018-05-13T02:27:25.601Z,101020.56
2018-05-13T02:29:53.185Z,101018.08
2018-05-13T02:32:20.808Z,101022.03
2018-05-13T02:34:48.396Z,101017.15
2018-05-13T02:37:16.231Z,101022.07
2018-05-13T02:39:43.821Z,101012.69
2018-05-13T02:42:11.434Z,101012.83
2018-05-13T02:44:39.061Z,101014.33
2018-05-13T02:47:06.689Z,101009.13
2018-05-13T02:49:34.273Z,101010.95
2018-05-13T02:52:02.205Z,101008.27
2018-05-13T02:54:29.780Z,101004.94
2018-05-13T02:56:57.401Z,101004.56
2018-05-13T02:59:25.594Z,101006.30
2018-05-13T03:01:53.227Z,101001.27
2018-05-13T03:04:20.810Z,101002.95
2018-05-13T03:06:48.422Z,101002.94
2018-05-13T03:09:16.585Z,101001.16
2018-05-13T03:11:44.167Z,101005.70
2018-05-13T03:14:11.745Z,101005.56
2018-05-13T03:16:39.367Z,101002.89
2018-05-13T03:19:07.006Z,101002.59
2018-05-13T03:21:34.649Z,101009.97
2018-05-13T03:24:02.229Z,101011.14
2018-05-13T03:26:29.850Z,101007.98
2018-05-13T03:28:57.905Z,101007.14
2018-05-13T03:31:25.492Z,100993.69
2018-05-13T03:33:53.078Z,100999.53
2018-05-13T03:36:20.706Z,100999.29
2018-05-13T03:38:48.517Z,100998.67
2018-05-13T03:41:16.220Z,100998.39
2018-05-13T03:43:43.976Z,101001.30
2018-05-13T03:46:11.581Z,100997.45
2018-05-13T03:48:39.217Z,101000.17
2018-05-13T03:51:06.793Z,101004.48
2018-05-13T03:53:34.417Z,101001.44
2018-05-13T03:56:02.042Z,100998.73
2018-05-13T03:58:29.620Z,100998.64
2018-05-13T04:00:57.402Z,101004.88
2018-05-13T04:03:25.020Z,101002.20
2018-05-13T04:05:52.652Z,101004.84
2018-05-13T04:11:29.641Z,100999.30
2018-05-13T04:14:08.862Z,100999.25
2018-05-13T04:16:36.476Z,100997.09
2018-05-13T04:19:04.672Z,100995.64
2018-05-13T04:21:32.288Z,100996.69
2018-05-13T04:23:59.869Z,100990.73
2018-05-13T04:26:27.506Z,100986.92
2018-05-13T04:28:55.134Z,100992.91
2018-05-13T04:31:22.715Z,100986.29
2018-05-13T04:33:50.337Z,100996.47
2018-05-13T04:36:17.908Z,100994.06
2018-05-13T04:38:45.520Z,100985.66
2018-05-13T04:41:13.142Z,100983.84
2018-05-13T04:43:40.733Z,100980.47
2018-05-13T04:46:08.369Z,100977.07
2018-05-13T04:48:35.970Z,100977.49
2018-05-13T04:51:03.600Z,100975.98
2018-05-13T04:53:31.181Z,100972.95
2018-05-13T04:55:58.809Z,100976.48
2018-05-13T04:58:26.426Z,100977.64
2018-05-13T05:00:54.053Z,100980.58
2018-05-13T05:03:21.632Z,100982.53
2018-05-13T05:05:49.241Z,100981.45
2018-05-13T05:08:16.890Z,100986.42
2018-05-13T05:10:44.472Z,100983.01
2018-05-13T05:13:12.948Z,100988.32
2018-05-13T05:15:40.781Z,100990.02
2018-05-13T05:18:09.231Z,100983.77
2018-05-13T05:20:36.884Z,100980.55
2018-05-13T05:23:04.478Z,100984.55
2018-05-13T05:25:32.107Z,100978.08
2018-05-13T05:28:00.298Z,100979.69
2018-05-13T05:30:27.973Z,100983.53
2018-05-13T05:32:55.552Z,100984.52
2018-05-13T05:35:23.180Z,100988.80
2018-05-13T05:37:51.425Z,100980.80
2018-05-13T05:40:18.949Z,100987.73
2018-05-13T05:42:47.750Z,100982.58
2018-05-13T05:45:15.336Z,100986.05
2018-05-13T05:47:42.957Z,100988.81
2018-05-13T05:50:10.540Z,100986.48
2018-05-13T05:52:38.200Z,100982.98
2018-05-13T05:55:05.789Z,100981.92
2018-05-13T05:57:33.373Z,100980.33
2018-05-13T06:00:01.010Z,100985.95
2018-05-13T06:02:28.636Z,100983.81
2018-05-13T06:04:56.813Z,100980.98
2018-05-13T06:07:25.006Z,100979.27
2018-05-13T06:09:52.591Z,100981.64
2018-05-13T06:12:20.226Z,100981.61
2018-05-13T06:14:47.841Z,100977.02
2018-05-13T06:17:15.428Z,100980.73
2018-05-13T06:19:43.367Z,100979.97
2018-05-13T06:22:10.905Z,100977.74
2018-05-13T06:24:38.525Z,100981.70
2018-05-13T06:27:06.140Z,100981.94
2018-05-13T06:29:34.013Z,100979.62
2018-05-13T06:32:01.737Z,100978.06
2018-05-13T06:34:29.321Z,100980.99
2018-05-13T06:36:56.937Z,100980.83
2018-05-13T06:39:24.718Z,100977.00
2018-05-13T06:41:52.339Z,100982.92
2018-05-13T06:44:19.936Z,100980.66
2018-05-13T06:46:47.557Z,100978.28
2018-05-13T06:49:15.154Z,100974.94
2018-05-13T06:51:42.764Z,100981.41
2018-05-13T06:54:10.389Z,100972.65
2018-05-13T06:56:38.075Z,100974.29
2018-05-13T06:59:05.705Z,100968.90
2018-05-13T07:01:34.045Z,100974.31
2018-05-13T07:04:01.785Z,100974.88
2018-05-13T07:06:29.445Z,100971.48
2018-05-13T07:08:57.100Z,100970.88
2018-05-13T07:11:24.970Z,100973.55
2018-05-13T07:13:52.772Z,100967.69
2018-05-13T07:16:20.367Z,100963.16
2018-05-13T07:18:48.047Z,100965.23
2018-05-13T07:21:15.656Z,100967.42
2018-05-13T07:23:43.324Z,100963.91
2018-05-13T07:26:10.955Z,100960.84
2018-05-13T07:28:38.582Z,100955.42
2018-05-13T07:31:06.494Z,100961.25
2018-05-13T07:33:34.071Z,100965.69
2018-05-13T07:36:01.688Z,100973.47
2018-05-13T07:38:29.328Z,100959.23
2018-05-13T07:40:56.909Z,100959.00
2018-05-13T07:43:24.787Z,100956.58
2018-05-13T07:45:52.834Z,100955.04
2018-05-13T07:48:20.609Z,100956.13
2018-05-13T07:50:48.851Z,100955.25
2018-05-13T07:53:17.429Z,100953.26
2018-05-13T07:55:45.070Z,100952.75
2018-05-13T07:58:12.665Z,100951.53
2018-05-13T08:00:40.252Z,100955.53
2018-05-13T08:03:08.965Z,100953.33
2018-05-13T08:05:37.916Z,100948.95
2018-05-13T08:08:06.704Z,100945.39
2018-05-13T08:10:35.371Z,100958.59
2018-05-13T08:13:03.225Z,100954.41
2018-05-13T08:15:30.901Z,100952.80
2018-05-13T08:17:58.867Z,100955.39
2018-05-13T08:20:26.549Z,100958.58
2018-05-13T08:22:54.200Z,100958.55
2018-05-13T08:25:22.298Z,100952.22
2018-05-13T08:27:49.908Z,100946.09
2018-05-13T08:30:17.534Z,100950.18
2018-05-13T08:32:45.174Z,100951.28
2018-05-13T08:35:12.923Z,100947.20
2018-05-13T08:37:40.509Z,100942.80
2018-05-13T08:40:08.582Z,100945.69
2018-05-13T08:42:36.940Z,100939.48
2018-05-13T08:45:04.552Z,100943.48
2018-05-13T08:47:33.609Z,100939.92
2018-05-13T08:50:01.232Z,100941.41
2018-05-13T08:52:28.835Z,100935.86
2018-05-13T08:54:57.069Z,100938.53
2018-05-13T08:57:25.262Z,100935.38
2018-05-13T08:59:54.569Z,100931.64
2018-05-13T09:02:22.152Z,100930.05
2018-05-13T09:04:50.433Z,100924.25
2018-05-13T09:07:18.024Z,100926.59
2018-05-13T09:09:46.275Z,100923.66
2018-05-13T09:12:17.588Z,100922.78
2018-05-13T09:14:45.524Z,100921.91
2018-05-13T09:17:14.336Z,100922.09
2018-05-13T09:22:32.340Z,100910.88
2018-05-13T09:24:59.931Z,100914.31
2018-05-13T09:27:27.516Z,100910.64
2018-05-13T09:29:55.826Z,100917.31
2018-05-13T09:32:23.453Z,100907.20
2018-05-13T09:34:51.108Z,100903.59
2018-05-13T09:37:18.807Z,100909.48
2018-05-13T09:39:46.576Z,100906.24
2018-05-13T09:42:14.196Z,100899.66
2018-05-13T09:44:42.132Z,100906.41
2018-05-13T09:47:09.710Z,100900.63
2018-05-13T09:49:37.296Z,100897.13
2018-05-13T09:52:04.967Z,100892.56
2018-05-13T09:54:32.595Z,100883.03
2018-05-13T09:57:06.456Z,100886.99
2018-05-13T09:59:38.619Z,100883.08
2018-05-13T10:02:11.967Z,100880.27
2018-05-13T10:04:46.350Z,100883.63
2018-05-13T10:07:14.194Z,100880.58
2018-05-13T10:09:46.564Z,100875.66
2018-05-13T10:12:14.602Z,100880.01
2018-05-13T10:14:42.246Z,100879.92
2018-05-13T10:17:09.829Z,100874.00
2018-05-13T10:19:37.524Z,100875.59
2018-05-13T10:22:05.314Z,100877.14
2018-05-13T10:24:33.398Z,100874.92
2018-05-13T10:27:01.033Z,100873.63
2018-05-13T10:29:28.675Z,100876.30
2018-05-13T10:31:56.399Z,100877.89
2018-05-13T10:34:25.515Z,100875.64
2018-05-13T10:36:55.052Z,100874.95
2018-05-13T10:39:23.460Z,100870.33
2018-05-13T10:41:51.297Z,100865.16
2018-05-13T10:44:18.983Z,100872.83
2018-05-13T10:46:46.653Z,100864.58
2018-05-13T10:49:17.002Z,100855.84
2018-05-13T10:51:44.620Z,100858.53
2018-05-13T10:54:12.273Z,100858.73
2018-05-13T10:56:40.086Z,100853.02
2018-05-13T10:59:07.668Z,100849.25
2018-05-13T11:01:35.296Z,100856.45
2018-05-13T11:04:03.018Z,100845.91
2018-05-13T11:06:30.600Z,100842.48
2018-05-13T11:08:58.230Z,100841.04
2018-05-13T11:11:26.376Z,100843.93
2018-05-13T11:13:53.960Z,100841.34
2018-05-13T11:16:21.851Z,100845.61
2018-05-13T11:18:50.437Z,100842.20
2018-05-13T11:21:18.037Z,100836.16
2018-05-13T11:23:45.633Z,100844.92
2018-05-13T11:26:13.263Z,100840.58
2018-05-13T11:28:40.855Z,100839.22
2018-05-13T11:31:08.461Z,100846.11
2018-05-13T11:33:36.081Z,100844.14
2018-05-13T11:36:03.675Z,100838.45
2018-05-13T11:38:31.290Z,100834.55
2018-05-13T11:40:58.864Z,100840.73
2018-05-13T11:43:26.588Z,100841.06
2018-05-13T11:45:54.196Z,100836.65
2018-05-13T11:48:21.827Z,100831.13
2018-05-13T11:50:49.661Z,100835.28
2018-05-13T11:53:17.473Z,100831.64
2018-05-13T11:55:45.056Z,100830.77
2018-05-13T11:58:12.691Z,100826.41
2018-05-13T12:00:40.468Z,100831.27
2018-05-13T12:03:08.057Z,100829.14
2018-05-13T12:05:36.252Z,100827.94
2018-05-13T12:08:04.042Z,100835.27
2018-05-13T12:10:32.305Z,100830.83
2018-05-13T12:13:00.070Z,100827.78
2018-05-13T12:15:28.250Z,100821.60
2018-05-13T12:17:55.832Z,100821.88
2018-05-13T12:20:23.421Z,100828.40
2018-05-13T12:22:51.049Z,100821.91
2018-05-13T12:25:18.949Z,100820.77
2018-05-13T12:27:47.140Z,100822.22
2018-05-13T12:30:14.737Z,100816.13
2018-05-13T12:32:42.361Z,100806.02
2018-05-13T12:35:09.953Z,100811.68
2018-05-13T12:37:37.586Z,100807.66
2018-05-13T12:40:05.199Z,100810.03
2018-05-13T12:42:32.826Z,100795.84
2018-05-13T12:45:00.408Z,100800.91
2018-05-13T12:47:29.254Z,100805.58
2018-05-13T12:49:57.271Z,100797.30
2018-05-13T12:52:24.857Z,100793.61
2018-05-13T12:54:52.910Z,100796.41
2018-05-13T12:57:20.537Z,100795.38
2018-05-13T12:59:50.048Z,100804.61
2018-05-13T13:02:17.680Z,100804.61
2018-05-13T13:04:46.564Z,100797.75
2018-05-13T13:07:14.986Z,100792.23
2018-05-13T13:09:42.629Z,100788.23
2018-05-13T13:12:11.237Z,100787.45
2018-05-13T13:14:38.861Z,100788.70
2018-05-13T13:17:07.409Z,100789.73
2018-05-13T13:19:35.094Z,100784.06
2018-05-13T13:22:03.032Z,100782.50
2018-05-13T13:24:31.397Z,100785.92
2018-05-13T13:26:59.061Z,100787.61
2018-05-13T13:29:26.728Z,100783.77
2018-05-13T13:31:54.352Z,100781.42
2018-05-13T13:34:21.945Z,100776.98
2018-05-13T13:36:49.570Z,100780.95
2018-05-13T13:39:17.197Z,100777.09
2018-05-13T13:41:44.830Z,100773.71
2018-05-13T13:44:12.414Z,100777.86
2018-05-13T13:46:40.025Z,100772.02
2018-05-13T13:49:07.643Z,100756.42
2018-05-13T13:51:36.920Z,100758.81
2018-05-13T13:54:04.538Z,100753.23
2018-05-13T13:56:32.127Z,100756.27
2018-05-13T13:58:59.827Z,100761.27
2018-05-13T14:01:28.069Z,100759.59
2018-05-13T14:03:57.437Z,100745.91
2018-05-13T14:06:26.125Z,100750.73
2018-05-13T14:08:54.770Z,100751.87
2018-05-13T14:11:22.650Z,100747.06
2018-05-13T14:13:50.860Z,100746.23
2018-05-13T14:16:19.102Z,100743.77
2018-05-13T14:18:46.730Z,100744.56
2018-05-13T14:21:14.314Z,100743.78
2018-05-13T14:23:41.991Z,100738.28
2018-05-13T14:26:09.587Z,100740.33
2018-05-13T14:28:37.178Z,100736.64
2018-05-13T14:31:04.798Z,100737.73
2018-05-13T14:33:32.395Z,100736.95
2018-05-13T14:36:00.161Z,100733.55
2018-05-13T14:38:27.790Z,100730.73
2018-05-13T14:40:55.682Z,100724.63
2018-05-13T14:43:23.329Z,100728.46
2018-05-13T14:45:50.941Z,100728.30
2018-05-13T14:48:18.592Z,100730.56
2018-05-13T14:50:46.241Z,100729.39
2018-05-13T14:53:13.820Z,100728.06
2018-05-13T14:55:41.452Z,100733.67
2018-05-13T14:58:09.712Z,100730.94
2018-05-13T15:00:37.289Z,100722.72
2018-05-13T15:03:04.905Z,100724.72
2018-05-13T15:05:32.480Z,100718.70
2018-05-13T15:08:00.102Z,100721.89
2018-05-13T15:10:27.940Z,100706.89
2018-05-13T15:12:55.683Z,100719.33
2018-05-13T15:15:23.429Z,100725.45
2018-05-13T15:17:54.813Z,100719.29
2018-05-13T15:20:22.517Z,100709.91
2018-05-13T15:22:50.140Z,100706.95
2018-05-13T15:25:19.240Z,100706.30
2018-05-13T15:27:47.027Z,100706.66
2018-05-13T15:30:14.655Z,100705.70
2018-05-13T15:32:42.274Z,100702.94
2018-05-13T15:35:09.848Z,100699.04
2018-05-13T15:37:37.465Z,100698.67
2018-05-13T15:40:06.190Z,100699.88
2018-05-13T15:42:33.873Z,100698.20
2018-05-13T15:45:01.450Z,100691.87
2018-05-13T15:47:29.175Z,100692.91
2018-05-13T15:49:56.745Z,100691.56
2018-05-13T15:52:24.499Z,100688.87
2018-05-13T15:54:52.161Z,100682.79
2018-05-13T15:57:19.777Z,100677.54
2018-05-13T15:59:47.384Z,100677.02
2018-05-13T16:02:15.256Z,100674.20
2018-05-13T16:04:43.664Z,100680.62
2018-05-13T16:07:11.295Z,100678.90
2018-05-13T16:09:39.693Z,100683.34
2018-05-13T16:12:07.391Z,100682.41
2018-05-13T16:14:35.590Z,100685.78
2018-05-13T16:17:03.227Z,100683.75
2018-05-13T16:19:33.025Z,100680.14
2018-05-13T16:22:00.850Z,100687.09
2018-05-13T16:24:28.549Z,100683.60
2018-05-13T16:26:56.116Z,100685.78
2018-05-13T16:29:26.177Z,100683.94
2018-05-13T16:31:53.828Z,100686.09
2018-05-13T16:34:21.409Z,100687.52
2018-05-13T16:36:49.564Z,100695.73
2018-05-13T16:39:17.224Z,100690.12
2018-05-13T16:41:45.009Z,100688.17
2018-05-13T16:44:12.585Z,100689.84
2018-05-13T16:46:40.213Z,100690.77
2018-05-13T16:49:07.831Z,100694.20
2018-05-13T16:51:35.413Z,100697.83
2018-05-13T16:54:03.025Z,100698.07
2018-05-13T16:56:30.637Z,100701.66
2018-05-13T16:58:58.215Z,100702.67
2018-05-13T17:01:25.845Z,100705.59
2018-05-13T17:03:53.416Z,100714.61
2018-05-13T17:06:21.038Z,100714.61
2018-05-13T17:08:48.609Z,100710.39
2018-05-13T17:11:16.205Z,100712.31
2018-05-13T17:13:43.812Z,100716.82
2018-05-13T17:16:11.490Z,100708.76
2018-05-13T17:18:39.123Z,100714.66
2018-05-13T17:21:07.789Z,100716.59
2018-05-13T17:23:35.491Z,100721.84
2018-05-13T17:26:03.297Z,100726.39
2018-05-13T17:28:31.265Z,100734.78
2018-05-13T17:31:00.854Z,100734.69
2018-05-13T17:33:33.356Z,100742.41
2018-05-13T17:36:02.140Z,100739.52
2018-05-13T17:38:29.876Z,100742.32
2018-05-13T17:41:04.828Z,100739.16
2018-05-13T17:43:32.712Z,100743.90
2018-05-13T17:46:03.036Z,100742.82
2018-05-13T17:48:30.640Z,100747.47
2018-05-13T17:50:58.261Z,100747.72
2018-05-13T17:53:26.141Z,100740.59
2018-05-13T17:55:59.984Z,100745.66
2018-05-13T17:58:29.979Z,100746.12
2018-05-13T18:00:59.148Z,100745.20
2018-05-13T18:03:27.197Z,100747.02
2018-05-13T18:05:58.374Z,100748.86
2018-05-13T18:08:27.940Z,100749.29
2018-05-13T18:10:55.547Z,100756.16
2018-05-13T18:13:23.131Z,100763.88
2018-05-13T18:15:50.739Z,100762.48
2018-05-13T18:18:18.317Z,100762.84
2018-05-13T18:20:45.939Z,100766.04
2018-05-13T18:23:14.590Z,100762.94
2018-05-13T18:25:42.970Z,100770.52
2018-05-13T18:28:16.667Z,100770.36
2018-05-13T18:30:51.409Z,100770.89
2018-05-13T18:33:19.220Z,100773.23
2018-05-13T18:35:46.844Z,100773.03
2018-05-13T18:38:14.445Z,100777.77
2018-05-13T18:40:42.660Z,100774.94
2018-05-13T18:43:10.647Z,100780.20
2018-05-13T18:45:39.017Z,100781.56
2018-05-13T18:48:07.647Z,100778.69
2018-05-13T18:50:36.126Z,100780.83
2018-05-13T18:53:03.708Z,100783.84
2018-05-13T18:55:31.402Z,100787.16
2018-05-13T18:58:03.109Z,100798.44
2018-05-13T19:00:31.013Z,100793.95
2018-05-13T19:02:59.232Z,100804.31
2018-05-13T19:05:26.853Z,100807.69
2018-05-13T19:07:54.420Z,100809.80
2018-05-13T19:10:22.171Z,100805.79
2018-05-13T19:12:49.768Z,100815.75
2018-05-13T19:15:17.347Z,100815.63
2018-05-13T19:17:44.955Z,100826.05
2018-05-13T19:20:12.529Z,100823.27
2018-05-13T19:22:40.232Z,100822.27
2018-05-13T19:25:07.858Z,100827.30
2018-05-13T19:27:35.429Z,100835.84
2018-05-13T19:30:03.233Z,100836.98
2018-05-13T19:32:30.980Z,100839.81
2018-05-13T19:34:58.592Z,100840.60
2018-05-13T19:37:26.257Z,100840.80
2018-05-13T19:39:53.859Z,100841.74
2018-05-13T19:42:21.439Z,100844.39
2018-05-13T19:44:49.052Z,100851.39
2018-05-13T19:47:16.782Z,100854.52
2018-05-13T19:49:44.732Z,100862.30
2018-05-13T19:52:12.905Z,100862.52
2018-05-13T19:54:40.864Z,100859.05
2018-05-13T19:57:09.142Z,100864.45
2018-05-13T19:59:37.152Z,100867.06
2018-05-13T20:02:04.834Z,100868.21
2018-05-13T20:04:32.817Z,100866.30
2018-05-13T20:07:01.275Z,100871.58
2018-05-13T20:09:28.917Z,100875.81
2018-05-13T20:11:56.538Z,100875.80
2018-05-13T20:14:24.263Z,100873.58
2018-05-13T20:16:52.202Z,100872.62
2018-05-13T20:19:20.620Z,100876.26
2018-05-13T20:21:48.360Z,100879.63
2018-05-13T20:24:15.929Z,100876.88
2018-05-13T20:26:43.534Z,100878.85
2018-05-13T20:29:11.149Z,100876.99
2018-05-13T20:31:39.353Z,100881.02
2018-05-13T20:34:06.920Z,100880.63
2018-05-13T20:36:35.414Z,100878.64
2018-05-13T20:39:02.997Z,100877.48
2018-05-13T20:41:30.650Z,100882.81
2018-05-13T20:43:58.222Z,100880.41
2018-05-13T20:46:25.840Z,100888.64
2018-05-13T20:48:53.442Z,100881.78
2018-05-13T20:51:21.245Z,100895.79
2018-05-13T20:53:48.836Z,100886.91
2018-05-13T20:56:16.444Z,100892.13
2018-05-13T20:58:44.027Z,100895.38
2018-05-13T21:01:11.852Z,100901.80
2018-05-13T21:03:39.486Z,100907.42
2018-05-13T21:06:07.217Z,100910.00
2018-05-13T21:08:34.853Z,100902.02
2018-05-13T21:11:02.452Z,100902.24
2018-05-13T21:13:30.030Z,100901.69
2018-05-13T21:15:57.647Z,100905.47
2018-05-13T21:18:25.220Z,100910.26
2018-05-13T21:20:52.824Z,100912.45
2018-05-13T21:23:20.388Z,100912.68
2018-05-13T21:25:48.008Z,100917.59
2018-05-13T21:28:15.586Z,100914.48
2018-05-13T21:30:43.164Z,100918.91
2018-05-13T21:33:10.789Z,100916.53
2018-05-13T21:35:38.364Z,100918.18
2018-05-13T21:38:06.386Z,100920.79
2018-05-13T21:40:33.960Z,100920.17
2018-05-13T21:43:01.776Z,100920.91
2018-05-13T21:45:29.387Z,100921.34
2018-05-13T21:47:57.116Z,100921.63
2018-05-13T21:50:24.680Z,100925.94
2018-05-13T21:52:52.288Z,100918.16
2018-05-13T21:55:19.860Z,100923.70
2018-05-13T21:57:47.434Z,100919.33
2018-05-13T22:00:15.046Z,100919.53
2018-05-13T22:02:43.236Z,100919.42
2018-05-13T22:05:10.807Z,100920.19
2018-05-13T22:07:38.420Z,100916.98
2018-05-13T22:10:06.002Z,100919.19
2018-05-13T22:12:33.729Z,100920.14
2018-05-13T22:15:01.345Z,100919.84
2018-05-13T22:17:28.933Z,100919.58
2018-05-13T22:19:56.552Z,100916.37
2018-05-13T22:22:24.176Z,100924.06
2018-05-13T22:24:51.841Z,100922.34
2018-05-13T22:27:19.415Z,100924.06
2018-05-13T22:29:47.022Z,100914.05
2018-05-13T22:32:14.591Z,100919.54
2018-05-13T22:34:42.193Z,100912.41
2018-05-13T22:37:09.768Z,100918.84
2018-05-13T22:39:37.381Z,100917.37
2018-05-13T22:42:04.996Z,100922.58
2018-05-13T22:44:32.597Z,100921.16
2018-05-13T22:47:00.271Z,100919.19
2018-05-13T22:49:27.844Z,100920.75
2018-05-13T22:51:55.465Z,100922.23
2018-05-13T22:54:23.035Z,100924.76
2018-05-13T22:56:50.649Z,100920.77
2018-05-13T22:59:18.241Z,100918.60
2018-05-13T23:01:45.850Z,100924.09
2018-05-13T23:04:14.017Z,100916.46
2018-05-13T23:06:41.584Z,100924.98
2018-05-13T23:09:09.399Z,100925.15
2018-05-13T23:11:36.977Z,100922.08
2018-05-13T23:14:05.160Z,100931.51
2018-05-13T23:16:32.772Z,100933.66
2018-05-13T23:19:00.381Z,100929.09
2018-05-13T23:21:27.955Z,100936.39
2018-05-13T23:23:55.772Z,100932.40
2018-05-13T23:26:23.349Z,100934.28
2018-05-13T23:28:50.960Z,100936.17
2018-05-13T23:31:18.532Z,100925.08
2018-05-13T23:33:46.151Z,100932.90
2018-05-13T23:36:13.725Z,100934.53
2018-05-13T23:38:41.494Z,100938.86
2018-05-13T23:41:09.064Z,100931.31
2018-05-13T23:43:36.721Z,100935.22
2018-05-13T23:46:04.277Z,100939.48
2018-05-13T23:48:31.857Z,100935.26
2018-05-13T23:51:00.144Z,100940.84
2018-05-13T23:53:28.084Z,100935.04
2018-05-13T23:55:55.657Z,100934.02
2018-05-13T23:58:23.265Z,100928.48
